createdAt,value
2019-05-14T00:00:21.614Z,7.50
2019-05-14T00:02:49.006Z,7.40
2019-05-14T00:05:16.042Z,7.30
2019-05-14T00:07:43.143Z,7.20
2019-05-14T00:10:11.928Z,7.30
2019-05-14T00:12:39.210Z,7.30
2019-05-14T00:15:06.534Z,7.30
2019-05-14T00:17:33.760Z,7.10
2019-05-14T00:20:07.421Z,7.20
2019-05-14T00:22:31.904Z,7.20
2019-05-14T00:25:01.131Z,7.10
2019-05-14T00:27:28.530Z,7.20
2019-05-14T00:29:55.475Z,7.10
2019-05-14T00:32:22.467Z,7.10
2019-05-14T00:34:51.637Z,7.00
2019-05-14T00:37:18.462Z,7.00
2019-05-14T00:39:46.023Z,7.00
2019-05-14T00:42:13.006Z,7.00
2019-05-14T00:44:51.611Z,7.00
2019-05-14T00:47:11.153Z,7.00
2019-05-14T00:49:37.989Z,6.90
2019-05-14T00:52:05.110Z,6.80
2019-05-14T00:54:32.361Z,6.90
2019-05-14T00:57:01.453Z,6.90
2019-05-14T00:59:28.279Z,6.90
2019-05-14T01:01:55.930Z,6.90
2019-05-14T01:04:23.413Z,6.80
2019-05-14T01:06:51.118Z,6.80
2019-05-14T01:09:18.413Z,6.80
2019-05-14T01:11:45.839Z,6.70
2019-05-14T01:14:13.238Z,6.70
2019-05-14T01:16:42.272Z,6.70
2019-05-14T01:19:09.518Z,6.70
2019-05-14T01:21:37.070Z,6.70
2019-05-14T01:24:04.367Z,6.70
2019-05-14T01:26:31.372Z,6.70
2019-05-14T01:28:58.437Z,6.60
2019-05-14T01:31:25.391Z,6.60
2019-05-14T01:33:52.510Z,6.60
2019-05-14T01:36:21.522Z,6.50
2019-05-14T01:38:51.100Z,6.50
2019-05-14T01:41:17.924Z,6.50
2019-05-14T01:43:45.543Z,6.40
2019-05-14T01:46:12.856Z,6.40
2019-05-14T01:48:41.741Z,6.40
2019-05-14T01:51:11.723Z,6.40
2019-05-14T01:53:38.236Z,6.40
2019-05-14T01:56:05.359Z,6.40
2019-05-14T01:58:32.402Z,6.30
2019-05-14T02:01:02.008Z,6.20
2019-05-14T02:03:28.867Z,6.20
2019-05-14T02:05:56.176Z,6.20
2019-05-14T02:08:23.390Z,6.20
2019-05-14T02:10:52.618Z,6.10
2019-05-14T02:13:21.406Z,6.10
2019-05-14T02:15:48.449Z,6.10
2019-05-14T02:18:15.429Z,6.20
2019-05-14T02:20:42.586Z,6.20
2019-05-14T02:23:11.841Z,6.10
2019-05-14T02:25:38.598Z,6.10
2019-05-14T02:28:06.347Z,6.10
2019-05-14T02:30:48.128Z,6.10
2019-05-14T02:33:02.321Z,6.10
2019-05-14T02:35:29.979Z,6.10
2019-05-14T02:37:59.626Z,6.00
2019-05-14T02:40:29.286Z,6.00
2019-05-14T02:42:59.031Z,5.90
2019-05-14T02:45:24.662Z,5.90
2019-05-14T02:47:51.642Z,5.90
2019-05-14T02:50:20.209Z,5.90
2019-05-14T02:52:49.572Z,5.90
2019-05-14T02:55:19.405Z,5.90
2019-05-14T02:57:49.830Z,5.80
2019-05-14T03:00:19.339Z,5.80
2019-05-14T03:02:45.655Z,5.70
2019-05-14T03:05:12.869Z,5.70
2019-05-14T03:07:39.952Z,5.80
2019-05-14T03:10:09.954Z,5.70
2019-05-14T03:12:39.558Z,5.70
2019-05-14T03:15:09.661Z,5.80
2019-05-14T03:17:40.074Z,5.70
2019-05-14T03:20:08.860Z,5.70
2019-05-14T03:22:47.094Z,5.60
2019-05-14T03:25:04.804Z,5.70
2019-05-14T03:27:31.822Z,5.70
2019-05-14T03:29:59.165Z,5.60
2019-05-14T03:32:26.355Z,5.60
2019-05-14T03:34:54.367Z,5.60
2019-05-14T03:37:23.044Z,5.60
2019-05-14T03:39:51.067Z,5.50
2019-05-14T03:42:19.382Z,5.60
2019-05-14T03:44:49.027Z,5.60
2019-05-14T03:47:15.743Z,5.60
2019-05-14T03:49:42.976Z,5.60
2019-05-14T03:52:11.312Z,5.60
2019-05-14T03:54:40.676Z,5.70
2019-05-14T03:57:09.527Z,5.60
2019-05-14T03:59:40.190Z,5.60
2019-05-14T04:02:09.746Z,5.60
2019-05-14T04:04:39.378Z,5.70
2019-05-14T04:07:09.805Z,5.70
2019-05-14T04:09:40.043Z,5.70
2019-05-14T04:12:09.955Z,5.80
2019-05-14T04:14:41.266Z,5.80
2019-05-14T04:17:15.195Z,5.90
2019-05-14T04:19:42.433Z,5.80
2019-05-14T04:22:12.380Z,5.80
2019-05-14T04:24:41.746Z,5.90
2019-05-14T04:27:12.789Z,5.90
2019-05-14T04:29:39.817Z,6.00
2019-05-14T04:32:09.451Z,6.10
2019-05-14T04:34:39.756Z,6.10
2019-05-14T04:37:09.723Z,6.20
2019-05-14T04:39:39.235Z,6.20
2019-05-14T04:42:04.883Z,6.20
2019-05-14T04:44:32.616Z,6.20
2019-05-14T04:47:20.213Z,6.20
2019-05-14T04:49:29.694Z,6.20
2019-05-14T04:51:59.490Z,6.20
2019-05-14T04:54:30.338Z,6.20
2019-05-14T04:56:59.683Z,6.30
2019-05-14T04:59:25.306Z,6.40
2019-05-14T05:01:52.347Z,6.40
2019-05-14T05:04:20.301Z,6.50
2019-05-14T05:06:49.860Z,6.60
2019-05-14T05:09:19.791Z,6.60
2019-05-14T05:11:46.100Z,6.60
2019-05-14T05:14:13.283Z,6.70
2019-05-14T05:16:40.399Z,6.80
2019-05-14T05:19:10.144Z,6.90
2019-05-14T05:21:38.680Z,7.00
2019-05-14T05:24:05.478Z,7.00
2019-05-14T05:26:32.471Z,7.10
2019-05-14T05:29:06.330Z,7.30
2019-05-14T05:31:29.051Z,7.30
2019-05-14T05:33:58.190Z,7.40
2019-05-14T05:36:25.435Z,7.50
2019-05-14T05:38:52.735Z,7.60
2019-05-14T05:41:19.968Z,7.60
2019-05-14T05:43:48.369Z,7.70
2019-05-14T05:46:16.024Z,7.80
2019-05-14T05:48:43.011Z,7.80
2019-05-14T05:51:10.325Z,7.90
2019-05-14T05:53:39.352Z,8.00
2019-05-14T05:56:08.996Z,8.00
2019-05-14T05:58:35.542Z,8.10
2019-05-14T06:01:02.577Z,8.10
2019-05-14T06:03:30.521Z,8.20
2019-05-14T06:05:59.416Z,8.30
2019-05-14T06:08:28.168Z,8.40
2019-05-14T06:10:55.471Z,8.50
2019-05-14T06:13:22.840Z,8.60
2019-05-14T06:15:52.348Z,8.60
2019-05-14T06:18:21.987Z,8.70
2019-05-14T06:20:49.442Z,8.80
2019-05-14T06:23:18.837Z,8.80
2019-05-14T06:25:48.865Z,8.90
2019-05-14T06:28:14.835Z,9.10
2019-05-14T06:30:42.494Z,9.20
2019-05-14T06:33:10.785Z,9.30
2019-05-14T06:35:39.755Z,9.40
2019-05-14T06:38:08.883Z,9.40
2019-05-14T06:40:39.544Z,9.40
2019-05-14T06:43:06.330Z,9.50
2019-05-14T06:45:33.334Z,9.60
2019-05-14T06:48:00.321Z,9.70
2019-05-14T06:50:28.492Z,9.70
2019-05-14T06:52:57.995Z,9.80
2019-05-14T06:55:24.586Z,10.00
2019-05-14T06:57:51.636Z,9.90
2019-05-14T07:00:20.852Z,10.00
2019-05-14T07:02:49.178Z,9.90
2019-05-14T07:05:18.687Z,10.00
2019-05-14T07:07:45.576Z,10.10
2019-05-14T07:10:13.593Z,10.10
2019-05-14T07:12:40.803Z,10.20
2019-05-14T07:15:09.471Z,10.30
2019-05-14T07:17:38.454Z,10.50
2019-05-14T07:20:08.914Z,10.60
2019-05-14T07:22:38.706Z,10.50
2019-05-14T07:25:06.188Z,10.60
2019-05-14T07:27:33.483Z,10.60
2019-05-14T07:30:00.467Z,10.70
2019-05-14T07:32:28.667Z,10.80
2019-05-14T07:34:56.138Z,10.80
2019-05-14T07:37:23.460Z,10.90
2019-05-14T07:39:51.179Z,10.90
2019-05-14T07:42:18.529Z,11.20
2019-05-14T07:44:48.307Z,11.30
2019-05-14T07:47:14.881Z,11.20
2019-05-14T07:49:42.562Z,11.10
2019-05-14T07:52:09.642Z,11.20
2019-05-14T07:54:38.757Z,11.20
2019-05-14T07:57:05.652Z,11.40
2019-05-14T07:59:32.688Z,11.40
2019-05-14T08:01:59.951Z,11.50
2019-05-14T08:04:28.971Z,11.50
2019-05-14T08:06:58.244Z,11.50
2019-05-14T08:09:25.403Z,11.60
2019-05-14T08:11:52.477Z,11.80
2019-05-14T08:14:19.796Z,11.90
2019-05-14T08:16:48.945Z,12.00
2019-05-14T08:19:25.368Z,12.00
2019-05-14T08:21:45.042Z,12.00
2019-05-14T08:24:15.350Z,12.10
2019-05-14T08:26:42.959Z,12.20
2019-05-14T08:29:10.275Z,12.40
2019-05-14T08:31:38.343Z,12.50
2019-05-14T08:34:06.704Z,12.50
2019-05-14T08:36:34.838Z,12.80
2019-05-14T08:39:01.836Z,12.90
2019-05-14T08:41:29.456Z,12.90
2019-05-14T08:43:56.470Z,12.90
2019-05-14T08:46:25.392Z,12.70
2019-05-14T08:48:52.674Z,12.70
2019-05-14T08:51:20.984Z,12.90
2019-05-14T08:53:50.339Z,13.10
2019-05-14T08:56:19.231Z,12.80
2019-05-14T08:58:49.160Z,12.80
2019-05-14T09:01:15.340Z,13.10
2019-05-14T09:03:42.689Z,13.30
2019-05-14T09:06:09.712Z,13.20
2019-05-14T09:08:39.033Z,13.10
2019-05-14T09:11:05.755Z,13.30
2019-05-14T09:13:32.862Z,13.30
2019-05-14T09:16:00.291Z,13.10
2019-05-14T09:18:29.013Z,12.90
2019-05-14T09:20:58.214Z,12.90
2019-05-14T09:23:28.368Z,13.10
2019-05-14T09:25:54.994Z,13.20
2019-05-14T09:28:22.113Z,13.40
2019-05-14T09:30:49.634Z,13.60
2019-05-14T09:33:18.763Z,13.70
2019-05-14T09:35:49.423Z,14.20
2019-05-14T09:38:18.825Z,14.00
2019-05-14T09:40:48.706Z,14.10
2019-05-14T09:43:15.175Z,14.20
2019-05-14T09:45:42.163Z,14.30
2019-05-14T09:48:09.171Z,14.20
2019-05-14T09:50:38.360Z,14.10
2019-05-14T09:53:05.540Z,14.40
2019-05-14T09:55:32.532Z,14.20
2019-05-14T09:57:59.607Z,14.30
2019-05-14T10:00:26.811Z,14.10
2019-05-14T10:02:53.778Z,14.20
2019-05-14T10:05:20.776Z,14.10
2019-05-14T10:07:49.380Z,14.60
2019-05-14T10:10:19.618Z,14.90
2019-05-14T10:12:53.857Z,15.10
2019-05-14T10:15:15.586Z,15.40
2019-05-14T10:17:43.053Z,15.20
2019-05-14T10:20:11.280Z,15.10
2019-05-14T10:22:39.875Z,15.20
2019-05-14T10:25:09.114Z,15.10
2019-05-14T10:27:36.419Z,14.90
2019-05-14T10:30:05.077Z,15.00
2019-05-14T10:32:32.091Z,15.40
2019-05-14T10:34:59.167Z,15.40
2019-05-14T10:37:28.610Z,15.30
2019-05-14T10:39:55.075Z,14.90
2019-05-14T10:42:22.149Z,14.60
2019-05-14T10:44:49.584Z,14.30
2019-05-14T10:47:18.725Z,14.20
2019-05-14T10:49:45.810Z,14.10
2019-05-14T10:52:13.113Z,14.00
2019-05-14T10:54:53.867Z,14.30
2019-05-14T10:57:09.855Z,14.80
2019-05-14T10:59:37.157Z,15.00
2019-05-14T11:02:04.477Z,15.20
2019-05-14T11:04:34.403Z,15.50
2019-05-14T11:07:01.183Z,15.00
2019-05-14T11:09:28.609Z,15.00
2019-05-14T11:11:58.354Z,15.30
2019-05-14T11:14:25.608Z,15.50
2019-05-14T11:16:52.999Z,15.50
2019-05-14T11:19:20.124Z,15.60
2019-05-14T11:21:48.444Z,15.40
2019-05-14T11:24:18.741Z,15.70
2019-05-14T11:26:45.421Z,15.70
2019-05-14T11:29:12.661Z,15.60
2019-05-14T11:31:40.124Z,15.10
2019-05-14T11:34:08.315Z,15.00
2019-05-14T11:36:35.754Z,15.20
2019-05-14T11:39:05.743Z,15.30
2019-05-14T11:41:33.202Z,15.40
2019-05-14T11:44:00.213Z,15.90
2019-05-14T11:46:42.063Z,16.00
2019-05-14T11:48:59.487Z,16.00
2019-05-14T11:51:57.852Z,15.50
2019-05-14T11:53:55.335Z,15.60
2019-05-14T11:56:22.803Z,15.80
2019-05-14T11:58:50.467Z,16.00
2019-05-14T12:01:18.857Z,16.30
2019-05-14T12:03:49.924Z,16.40
2019-05-14T12:06:18.385Z,16.60
2019-05-14T12:08:44.948Z,16.50
2019-05-14T12:11:11.945Z,16.50
2019-05-14T12:13:39.541Z,16.50
2019-05-14T12:16:08.604Z,16.30
2019-05-14T12:18:41.280Z,15.70
2019-05-14T12:21:04.792Z,15.60
2019-05-14T12:23:31.776Z,15.80
2019-05-14T12:25:59.022Z,15.80
2019-05-14T12:28:28.938Z,16.00
2019-05-14T12:30:55.043Z,15.80
2019-05-14T12:33:22.035Z,15.80
2019-05-14T12:35:49.615Z,16.10
2019-05-14T12:38:18.753Z,16.40
2019-05-14T12:40:45.966Z,16.60
2019-05-14T12:43:12.934Z,16.60
2019-05-14T12:45:39.944Z,16.10
2019-05-14T12:48:09.331Z,16.10
2019-05-14T12:50:38.922Z,16.40
2019-05-14T12:53:05.682Z,16.40
2019-05-14T12:55:33.725Z,16.00
2019-05-14T12:58:01.802Z,15.90
2019-05-14T13:00:29.268Z,15.90
2019-05-14T13:02:58.515Z,16.20
2019-05-14T13:05:25.565Z,16.30
2019-05-14T13:07:52.559Z,16.20
2019-05-14T13:10:19.974Z,16.80
2019-05-14T13:12:48.319Z,17.10
2019-05-14T13:15:15.923Z,17.00
2019-05-14T13:17:43.008Z,16.90
2019-05-14T13:20:13.770Z,16.80
2019-05-14T13:22:45.897Z,16.50
2019-05-14T13:25:11.200Z,16.40
2019-05-14T13:27:39.223Z,16.10
2019-05-14T13:30:09.097Z,15.80
2019-05-14T13:32:39.066Z,15.70
2019-05-14T13:35:09.534Z,15.60
2019-05-14T13:37:39.553Z,15.60
2019-05-14T13:40:09.002Z,16.00
2019-05-14T13:42:35.274Z,16.30
2019-05-14T13:45:03.184Z,16.40
2019-05-14T13:47:31.484Z,16.00
2019-05-14T13:49:59.309Z,15.60
2019-05-14T13:52:29.274Z,16.10
2019-05-14T13:54:56.495Z,16.30
2019-05-14T13:57:23.871Z,16.40
2019-05-14T13:59:50.911Z,16.50
2019-05-14T14:02:19.018Z,16.60
2019-05-14T14:04:48.115Z,16.80
2019-05-14T14:07:15.387Z,16.90
2019-05-14T14:09:42.723Z,16.90
2019-05-14T14:12:10.061Z,17.00
2019-05-14T14:14:38.730Z,17.10
2019-05-14T14:17:06.443Z,17.20
2019-05-14T14:19:33.792Z,17.00
2019-05-14T14:22:00.746Z,16.90
2019-05-14T14:24:29.074Z,16.50
2019-05-14T14:26:58.376Z,16.70
2019-05-14T14:29:25.722Z,16.60
2019-05-14T14:31:53.058Z,16.80
2019-05-14T14:34:20.199Z,17.40
2019-05-14T14:36:49.897Z,17.80
2019-05-14T14:39:18.980Z,18.30
2019-05-14T14:41:45.794Z,17.60
2019-05-14T14:44:12.761Z,17.90
2019-05-14T14:46:40.075Z,18.10
2019-05-14T14:49:10.474Z,17.60
2019-05-14T14:51:41.825Z,17.20
2019-05-14T14:54:14.469Z,16.90
2019-05-14T14:56:34.968Z,17.10
2019-05-14T14:59:03.150Z,16.80
2019-05-14T15:01:30.520Z,16.60
2019-05-14T15:03:59.587Z,16.60
2019-05-14T15:06:30.315Z,16.70
2019-05-14T15:08:58.675Z,16.60
2019-05-14T15:11:24.847Z,16.90
2019-05-14T15:13:51.852Z,16.70
2019-05-14T15:16:20.057Z,17.20
2019-05-14T15:18:49.821Z,17.30
2019-05-14T15:21:19.172Z,17.20
2019-05-14T15:24:02.920Z,17.40
2019-05-14T15:26:15.005Z,17.70
2019-05-14T15:28:42.497Z,17.40
2019-05-14T15:31:09.618Z,17.20
2019-05-14T15:33:36.669Z,17.00
2019-05-14T15:36:03.901Z,17.00
2019-05-14T15:38:31.018Z,16.50
2019-05-14T15:40:59.621Z,16.50
2019-05-14T15:43:28.573Z,16.40
2019-05-14T15:45:56.046Z,16.10
2019-05-14T15:48:23.082Z,16.30
2019-05-14T15:50:50.485Z,16.20
2019-05-14T15:53:19.494Z,16.20
2019-05-14T15:55:48.943Z,16.00
2019-05-14T15:58:15.618Z,16.30
2019-05-14T16:00:42.757Z,16.20
2019-05-14T16:03:10.143Z,16.30
2019-05-14T16:05:39.204Z,16.40
2019-05-14T16:08:06.218Z,16.50
2019-05-14T16:10:33.276Z,16.40
2019-05-14T16:13:00.527Z,16.80
2019-05-14T16:15:28.169Z,17.30
2019-05-14T16:18:07.824Z,17.90
2019-05-14T16:20:24.540Z,17.60
2019-05-14T16:22:51.915Z,17.30
2019-05-14T16:25:19.130Z,17.20
2019-05-14T16:27:46.871Z,17.10
2019-05-14T16:30:14.643Z,17.70
2019-05-14T16:32:41.640Z,18.50
2019-05-14T16:35:09.157Z,18.50
2019-05-14T16:37:38.853Z,18.20
2019-05-14T16:40:05.780Z,17.90
2019-05-14T16:42:33.575Z,17.60
2019-05-14T16:45:01.123Z,17.30
2019-05-14T16:47:28.734Z,16.60
2019-05-14T16:49:55.927Z,16.50
2019-05-14T16:52:22.912Z,16.20
2019-05-14T16:54:50.310Z,15.80
2019-05-14T16:57:18.659Z,16.30
2019-05-14T16:59:46.113Z,16.50
2019-05-14T17:02:13.108Z,16.90
2019-05-14T17:04:40.241Z,17.40
2019-05-14T17:07:09.509Z,17.80
2019-05-14T17:09:38.445Z,17.10
2019-05-14T17:12:05.472Z,16.20
2019-05-14T17:14:32.481Z,16.20
2019-05-14T17:16:59.740Z,16.10
2019-05-14T17:19:29.636Z,16.00
2019-05-14T17:21:55.924Z,15.80
2019-05-14T17:24:23.190Z,15.80
2019-05-14T17:26:50.384Z,15.50
2019-05-14T17:29:19.165Z,15.30
2019-05-14T17:31:49.153Z,15.20
2019-05-14T17:34:15.263Z,15.00
2019-05-14T17:36:42.342Z,15.00
2019-05-14T17:39:09.646Z,15.10
2019-05-14T17:41:41.615Z,15.10
2019-05-14T17:44:05.711Z,15.00
2019-05-14T17:46:32.889Z,15.10
2019-05-14T17:49:00.354Z,14.90
2019-05-14T17:51:28.372Z,15.50
2019-05-14T17:53:58.726Z,16.10
2019-05-14T17:56:28.243Z,17.00
2019-05-14T17:58:54.935Z,17.40
2019-05-14T18:01:22.019Z,17.10
2019-05-14T18:03:49.370Z,16.40
2019-05-14T18:06:18.721Z,15.90
2019-05-14T18:08:45.621Z,15.10
2019-05-14T18:11:12.636Z,14.60
2019-05-14T18:13:39.959Z,14.30
2019-05-14T18:16:09.023Z,14.00
2019-05-14T18:18:36.270Z,13.70
2019-05-14T18:21:03.274Z,13.60
2019-05-14T18:23:30.282Z,13.50
2019-05-14T18:26:04.974Z,13.20
2019-05-14T18:28:28.635Z,13.20
2019-05-14T18:30:55.752Z,13.00
2019-05-14T18:33:22.747Z,13.00
2019-05-14T18:35:51.031Z,12.80
2019-05-14T18:38:19.457Z,12.70
2019-05-14T18:40:46.544Z,12.60
2019-05-14T18:43:14.134Z,12.50
2019-05-14T18:45:41.407Z,12.40
2019-05-14T18:48:08.574Z,12.20
2019-05-14T18:50:35.983Z,12.30
2019-05-14T18:53:02.977Z,12.20
2019-05-14T18:55:30.014Z,12.10
2019-05-14T18:57:59.333Z,12.00
2019-05-14T19:00:29.437Z,12.10
2019-05-14T19:02:57.258Z,12.00
2019-05-14T19:05:25.352Z,11.90
2019-05-14T19:07:53.094Z,12.00
2019-05-14T19:10:20.478Z,12.00
2019-05-14T19:12:49.989Z,11.90
2019-05-14T19:15:18.551Z,11.90
2019-05-14T19:17:45.715Z,11.80
2019-05-14T19:20:13.901Z,11.80
2019-05-14T19:22:41.231Z,11.80
2019-05-14T19:25:08.339Z,11.70
2019-05-14T19:27:37.806Z,11.60
2019-05-14T19:30:05.327Z,11.50
2019-05-14T19:32:32.485Z,11.50
2019-05-14T19:34:59.464Z,11.40
2019-05-14T19:37:26.438Z,11.40
2019-05-14T19:39:53.763Z,11.30
2019-05-14T19:42:20.762Z,11.30
2019-05-14T19:44:48.325Z,11.20
2019-05-14T19:47:15.749Z,11.20
2019-05-14T19:49:43.143Z,11.20
2019-05-14T19:52:10.540Z,11.20
2019-05-14T19:54:38.463Z,11.20
2019-05-14T19:57:05.698Z,11.10
2019-05-14T19:59:32.962Z,11.00
2019-05-14T20:02:00.432Z,11.00
2019-05-14T20:04:29.151Z,10.90
2019-05-14T20:06:56.873Z,10.80
2019-05-14T20:09:24.423Z,10.80
2019-05-14T20:11:52.226Z,10.80
2019-05-14T20:14:19.284Z,10.80
2019-05-14T20:16:48.927Z,10.80
2019-05-14T20:19:15.628Z,10.70
2019-05-14T20:21:42.733Z,10.70
2019-05-14T20:24:09.885Z,10.70
2019-05-14T20:26:39.047Z,10.60
2019-05-14T20:29:08.821Z,10.70
2019-05-14T20:31:36.126Z,10.60
2019-05-14T20:34:03.263Z,10.50
2019-05-14T20:36:30.300Z,10.50
2019-05-14T20:38:58.888Z,10.40
2019-05-14T20:41:28.586Z,10.40
2019-05-14T20:43:55.039Z,10.40
2019-05-14T20:46:24.363Z,10.30
2019-05-14T20:48:51.363Z,10.30
2019-05-14T20:51:19.731Z,10.20
2019-05-14T20:53:48.745Z,10.10
2019-05-14T20:56:15.908Z,10.10
2019-05-14T20:58:43.467Z,10.00
2019-05-14T21:01:11.561Z,10.00
2019-05-14T21:03:38.869Z,10.00
2019-05-14T21:06:06.326Z,10.00
2019-05-14T21:08:33.446Z,10.00
2019-05-14T21:11:01.116Z,9.90
2019-05-14T21:13:28.207Z,9.90
2019-05-14T21:15:55.525Z,9.90
2019-05-14T21:18:34.393Z,9.80
2019-05-14T21:20:52.144Z,9.80
2019-05-14T21:23:19.578Z,9.80
2019-05-14T21:25:48.364Z,9.80
2019-05-14T21:28:15.658Z,9.70
2019-05-14T21:30:42.734Z,9.70
2019-05-14T21:33:10.137Z,9.70
2019-05-14T21:35:39.069Z,9.60
2019-05-14T21:38:08.899Z,9.60
2019-05-14T21:40:35.556Z,9.60
2019-05-14T21:43:02.854Z,9.50
2019-05-14T21:45:29.972Z,9.50
2019-05-14T21:47:59.420Z,9.50
2019-05-14T21:50:28.761Z,9.80
2019-05-14T21:52:59.435Z,9.80
2019-05-14T21:55:25.193Z,9.80
2019-05-14T21:57:56.983Z,9.80
2019-05-14T22:00:30.876Z,9.80
2019-05-14T22:02:59.999Z,9.70
2019-05-14T22:05:28.389Z,9.60
2019-05-14T22:07:57.821Z,9.70
2019-05-14T22:10:24.783Z,9.70
2019-05-14T22:12:51.930Z,9.70
2019-05-14T22:15:19.367Z,9.60
2019-05-14T22:17:48.968Z,9.60
2019-05-14T22:20:19.003Z,9.60
2019-05-14T22:22:48.199Z,9.60
2019-05-14T22:25:14.869Z,9.60
2019-05-14T22:27:43.015Z,9.50
2019-05-14T22:30:10.357Z,9.50
2019-05-14T22:32:38.272Z,9.50
2019-05-14T22:35:08.555Z,9.30
2019-05-14T22:37:35.851Z,9.30
2019-05-14T22:40:03.261Z,9.30
2019-05-14T22:42:30.340Z,9.20
2019-05-14T22:44:58.300Z,9.20
2019-05-14T22:47:25.957Z,9.20
2019-05-14T22:49:53.106Z,9.20
2019-05-14T22:52:20.180Z,9.20
2019-05-14T22:54:49.052Z,9.30
2019-05-14T22:57:16.622Z,9.30
2019-05-14T22:59:43.755Z,9.30
2019-05-14T23:02:11.314Z,9.30
2019-05-14T23:04:38.648Z,9.40
2019-05-14T23:07:08.092Z,9.40
2019-05-14T23:09:34.925Z,9.40
2019-05-14T23:12:01.997Z,9.40
2019-05-14T23:14:29.462Z,9.40
2019-05-14T23:16:56.639Z,9.40
2019-05-14T23:19:23.787Z,9.40
2019-05-14T23:21:50.876Z,9.30
2019-05-14T23:24:18.945Z,9.20
2019-05-14T23:26:49.188Z,9.20
2019-05-14T23:29:16.379Z,9.10
2019-05-14T23:31:44.723Z,9.20
2019-05-14T23:34:12.310Z,9.10
2019-05-14T23:36:40.136Z,9.20
2019-05-14T23:39:08.861Z,9.20
2019-05-14T23:41:38.362Z,9.20
2019-05-14T23:44:05.413Z,9.20
2019-05-14T23:46:32.659Z,9.10
2019-05-14T23:48:59.888Z,9.10
2019-05-14T23:51:28.937Z,9.10
2019-05-14T23:53:56.477Z,9.10
2019-05-14T23:56:23.596Z,9.20
2019-05-14T23:58:57.765Z,9.20
